»·PEaware :: FFT166 KJAC-KDEN

FFT166 :: KJAC-KDEN

FLIGHT INFORMATION

Flight Status: Arrived
Operator:
Frontier Airlines
More flights by this operator :: More flights under this callsign
Pilot: Hayden Y. (1870)
Aircraft: AIRBUS A320
(A320)
More flights by this aircraft type
Origin: KJAC Jackson Hole
United States
Destination: KDEN Denver Intl
United States
More flights between these airports :: More routes between these airports
Route: ALPIN2 SWEAT TOFUU FLATI1
File this flight plan on PilotEdge
Remarks: RMK / SIMBRIEF
Altitude:
(Current/Filed)
35,000ft
Speed:
(Current/Filed)
438kts
Departed: 18-May-20 11:18 AM
Arrived: 18-May-20 12:22 PM
Distance/Time
Traveled:
352nm/1:04
Distance/Time
To Go:
Arrived

Flight Plot

Page will automatically refresh every two minutes.

Flight plan parsing failed; only flown route is shown


Map Options




Map Legend


Flown Route
Filed Route
Departure Airport
Arrival Airport
Navaid (VOR, NDB)
Fix

Horizontal Profiles

Position Reports

Time Latitude Longitude Heading Altitude Ground
Speed
18-May-20 10:51 43.602746 -110.737534 107 6465ft 0kts
18-May-20 10:52 43.602746 -110.737534 107 6465ft 0kts
18-May-20 10:53 43.602746 -110.737534 107 6465ft 0kts
18-May-20 10:54 43.602746 -110.737534 107 6465ft 0kts
18-May-20 10:55 43.602746 -110.737534 107 6465ft 0kts
18-May-20 10:56 43.602746 -110.737534 107 6465ft 0kts
18-May-20 10:57 43.602746 -110.737534 107 6465ft 0kts
18-May-20 10:58 43.602746 -110.737534 107 6465ft 0kts
18-May-20 11:00 43.602746 -110.737534 107 6465ft 0kts
18-May-20 11:01 43.602746 -110.737534 107 6465ft 0kts
18-May-20 11:02 43.602746 -110.737534 107 6465ft 0kts
18-May-20 11:03 43.602746 -110.737534 107 6465ft 0kts
18-May-20 11:04 43.602746 -110.737534 107 6465ft 0kts
18-May-20 11:05 43.602746 -110.737534 107 6465ft 0kts
18-May-20 11:06 43.602746 -110.737534 107 6465ft 0kts
18-May-20 11:07 43.602746 -110.737534 107 6465ft 0kts
18-May-20 11:09 43.602746 -110.737549 109 6465ft 0kts
18-May-20 11:10 43.602746 -110.737549 109 6465ft 0kts
18-May-20 11:11 43.603075 -110.737639 165 6465ft 2kts
18-May-20 11:12 43.603115 -110.737633 107 6465ft 0kts
18-May-20 11:13 43.603115 -110.737632 107 6465ft 0kts
18-May-20 11:14 43.604486 -110.737538 25 6465ft 9kts
18-May-20 11:15 43.607221 -110.736222 20 6465ft 12kts
18-May-20 11:16 43.611163 -110.734289 19 6465ft 20kts
18-May-20 11:16 43.615056 -110.732616 314 6465ft 8kts
18-May-20 11:17 43.609168 -110.736875 199 6465ft 113kts
18-May-20 11:19 43.561098 -110.765757 205 8530ft 187kts
18-May-20 11:19 43.516062 -110.794956 205 9335ft 243kts
18-May-20 11:20 43.447078 -110.839939 205 10893ft 305kts
18-May-20 11:21 43.366701 -110.892189 205 13464ft 324kts
18-May-20 11:23 43.275759 -110.948652 195 16490ft 329kts
18-May-20 11:23 43.202812 -110.920844 141 18510ft 365kts
18-May-20 11:24 43.159606 -110.786053 118 20508ft 398kts
18-May-20 11:25 43.117478 -110.644183 120 22293ft 409kts
18-May-20 11:26 43.074238 -110.497460 119 23890ft 421kts
18-May-20 11:27 43.029414 -110.347195 120 25372ft 431kts
18-May-20 11:28 42.983463 -110.193690 120 26733ft 439kts
18-May-20 11:29 42.936547 -110.038132 120 27953ft 448kts
18-May-20 11:30 42.888413 -109.879067 119 29039ft 457kts
18-May-20 11:31 42.839190 -109.717786 119 30178ft 462kts
18-May-20 11:32 42.789947 -109.557012 119 31503ft 459kts
18-May-20 11:33 42.740471 -109.397014 120 32707ft 458kts
18-May-20 11:34 42.691041 -109.237880 120 33790ft 456kts
18-May-20 11:35 42.641567 -109.079710 120 34759ft 455kts
18-May-20 11:36 42.591739 -108.921246 119 34959ft 456kts
18-May-20 11:37 42.541830 -108.763292 119 34956ft 456kts
18-May-20 11:38 42.491689 -108.605883 119 34972ft 454kts
18-May-20 11:39 42.438492 -108.451663 132 34902ft 442kts
18-May-20 11:40 42.352086 -108.339218 144 34911ft 430kts
18-May-20 11:41 42.263977 -108.227914 143 34930ft 434kts
18-May-20 11:42 42.174985 -108.116874 143 34950ft 437kts
18-May-20 11:43 42.085812 -108.005494 143 35049ft 437kts
18-May-20 11:44 41.996359 -107.894384 143 35086ft 437kts
18-May-20 11:45 41.906788 -107.783575 143 35103ft 437kts
18-May-20 11:46 41.817604 -107.673583 141 35065ft 436kts
18-May-20 11:47 41.735837 -107.552182 137 35035ft 439kts
18-May-20 11:48 41.654197 -107.431082 137 34851ft 436kts
18-May-20 11:49 41.573876 -107.311985 137 33862ft 427kts
18-May-20 11:50 41.494919 -107.195602 137 32877ft 420kts
18-May-20 11:51 41.417026 -107.081046 137 31888ft 412kts
18-May-20 11:52 41.340684 -106.968963 138 30902ft 405kts
18-May-20 11:53 41.265061 -106.858569 138 29919ft 399kts
18-May-20 11:54 41.191058 -106.750766 137 28933ft 392kts
18-May-20 11:55 41.118184 -106.645025 138 27945ft 385kts
18-May-20 11:56 41.046232 -106.541079 137 27147ft 380kts
18-May-20 11:57 40.974383 -106.437594 137 27174ft 380kts
18-May-20 11:58 40.902685 -106.334684 137 27197ft 380kts
18-May-20 11:59 40.835158 -106.226750 122 27134ft 389kts
18-May-20 12:00 40.790712 -106.097209 119 26161ft 384kts
18-May-20 12:01 40.745108 -105.970571 119 25174ft 379kts
18-May-20 12:02 40.700640 -105.845796 119 24189ft 374kts
18-May-20 12:03 40.656260 -105.722530 119 23196ft 369kts
18-May-20 12:04 40.612590 -105.601543 119 21953ft 362kts
18-May-20 12:05 40.569468 -105.482714 119 20363ft 357kts
18-May-20 12:06 40.526694 -105.365312 119 18811ft 353kts
18-May-20 12:07 40.484311 -105.249313 119 17288ft 352kts
18-May-20 12:08 40.446623 -105.130960 109 15899ft 349kts
18-May-20 12:09 40.418709 -105.010140 109 14534ft 340kts
18-May-20 12:10 40.391947 -104.899129 109 14034ft 298kts
18-May-20 12:11 40.368789 -104.801958 109 13370ft 269kts
18-May-20 12:12 40.328095 -104.717446 147 12996ft 292kts
18-May-20 12:13 40.259980 -104.681446 183 12557ft 247kts
18-May-20 12:14 40.193363 -104.683353 180 11441ft 238kts
18-May-20 12:15 40.125458 -104.684205 181 9865ft 241kts
18-May-20 12:16 40.061076 -104.684969 180 8640ft 218kts
18-May-20 12:17 40.008030 -104.685580 180 7609ft 165kts
18-May-20 12:18 39.962816 -104.686105 178 6736ft 162kts
18-May-20 12:19 39.916752 -104.686635 178 5867ft 165kts
18-May-20 12:20 39.879626 -104.687145 179 5445ft 84kts
18-May-20 12:21 39.871310 -104.685087 154 5445ft 0kts
18-May-20 12:22 39.867502 -104.685011 179 5445ft 17kts
18-May-20 12:23 39.862493 -104.685109 179 5445ft 18kts
18-May-20 12:24 39.857162 -104.685103 180 5445ft 18kts
18-May-20 12:25 39.855988 -104.682423 90 5445ft 14kts
18-May-20 12:26 39.855396 -104.676938 134 5445ft 15kts
18-May-20 12:27 39.854337 -104.676541 180 5445ft 0kts
18-May-20 12:28 39.854318 -104.676541 180 5445ft 0kts
18-May-20 12:29 39.854318 -104.676541 180 5445ft 0kts

Navigation Log

Ident Type
Flight plan parsing failed, navigation log unavailable